sensor_id;sensor_type;location;lat;lon;timestamp;P1;durP1;ratioP1;P2;durP2;ratioP2
41099;SDS011;26844;53.686;-6.346;2022-10-16T00:00:28;43.75;;;41.90;;
41099;SDS011;26844;53.686;-6.346;2022-10-16T00:02:53;40.28;;;38.38;;
41099;SDS011;26844;53.686;-6.346;2022-10-16T00:05:18;39.42;;;37.80;;
41099;SDS011;26844;53.686;-6.346;2022-10-16T00:07:44;39.33;;;37.63;;
41099;SDS011;26844;53.686;-6.346;2022-10-16T00:10:09;39.45;;;37.75;;
41099;SDS011;26844;53.686;-6.346;2022-10-16T00:12:34;60.15;;;57.53;;
41099;SDS011;26844;53.686;-6.346;2022-10-16T00:14:59;63.08;;;60.17;;
41099;SDS011;26844;53.686;-6.346;2022-10-16T00:17:25;57.60;;;55.10;;
41099;SDS011;26844;53.686;-6.346;2022-10-16T00:19:50;57.22;;;54.67;;
41099;SDS011;26844;53.686;-6.346;2022-10-16T00:22:15;63.53;;;60.70;;
41099;SDS011;26844;53.686;-6.346;2022-10-16T00:24:40;57.50;;;55.03;;
41099;SDS011;26844;53.686;-6.346;2022-10-16T00:27:06;72.60;;;69.15;;
41099;SDS011;26844;53.686;-6.346;2022-10-16T00:29:31;51.17;;;48.95;;
41099;SDS011;26844;53.686;-6.346;2022-10-16T00:31:56;59.42;;;56.67;;
41099;SDS011;26844;53.686;-6.346;2022-10-16T00:34:21;50.90;;;48.70;;
41099;SDS011;26844;53.686;-6.346;2022-10-16T00:36:46;40.58;;;38.75;;
41099;SDS011;26844;53.686;-6.346;2022-10-16T00:39:12;55.97;;;53.30;;
41099;SDS011;26844;53.686;-6.346;2022-10-16T00:41:37;55.40;;;52.90;;
41099;SDS011;26844;53.686;-6.346;2022-10-16T00:44:03;59.72;;;56.97;;
41099;SDS011;26844;53.686;-6.346;2022-10-16T00:46:37;52.15;;;49.95;;
41099;SDS011;26844;53.686;-6.346;2022-10-16T00:49:09;53.25;;;50.95;;
41099;SDS011;26844;53.686;-6.346;2022-10-16T00:51:36;39.22;;;37.45;;
41099;SDS011;26844;53.686;-6.346;2022-10-16T00:54:02;34.85;;;33.35;;
41099;SDS011;26844;53.686;-6.346;2022-10-16T00:56:29;34.65;;;33.15;;
41099;SDS011;26844;53.686;-6.346;2022-10-16T00:58:54;22.50;;;21.58;;
41099;SDS011;26844;53.686;-6.346;2022-10-16T01:01:19;24.35;;;23.30;;
41099;SDS011;26844;53.686;-6.346;2022-10-16T01:03:45;18.67;;;17.95;;
41099;SDS011;26844;53.686;-6.346;2022-10-16T01:08:46;14.60;;;13.90;;
41099;SDS011;26844;53.686;-6.346;2022-10-16T01:13:40;41.08;;;39.30;;
41099;SDS011;26844;53.686;-6.346;2022-10-16T01:16:08;36.88;;;35.28;;
41099;SDS011;26844;53.686;-6.346;2022-10-16T01:18:42;63.90;;;60.95;;
41099;SDS011;26844;53.686;-6.346;2022-10-16T01:21:09;78.30;;;74.60;;
41099;SDS011;26844;53.686;-6.346;2022-10-16T01:28:58;78.43;;;74.47;;
41099;SDS011;26844;53.686;-6.346;2022-10-16T01:31:27;99.25;;;93.97;;
41099;SDS011;26844;53.686;-6.346;2022-10-16T01:34:16;73.47;;;70.00;;
41099;SDS011;26844;53.686;-6.346;2022-10-16T01:36:46;145.82;;;136.30;;
41099;SDS011;26844;53.686;-6.346;2022-10-16T01:39:13;47.67;;;45.58;;
41099;SDS011;26844;53.686;-6.346;2022-10-16T01:41:46;53.78;;;51.22;;
41099;SDS011;26844;53.686;-6.346;2022-10-16T01:44:15;67.30;;;63.85;;
41099;SDS011;26844;53.686;-6.346;2022-10-16T01:46:42;43.83;;;41.92;;
41099;SDS011;26844;53.686;-6.346;2022-10-16T01:49:08;58.20;;;55.58;;
41099;SDS011;26844;53.686;-6.346;2022-10-16T01:51:34;55.40;;;52.83;;
41099;SDS011;26844;53.686;-6.346;2022-10-16T01:54:00;72.72;;;68.97;;
41099;SDS011;26844;53.686;-6.346;2022-10-16T01:56:27;42.50;;;40.70;;
41099;SDS011;26844;53.686;-6.346;2022-10-16T01:58:57;38.35;;;36.65;;
41099;SDS011;26844;53.686;-6.346;2022-10-16T02:01:24;77.10;;;73.13;;
41099;SDS011;26844;53.686;-6.346;2022-10-16T02:06:16;32.10;;;30.75;;
41099;SDS011;26844;53.686;-6.346;2022-10-16T02:08:42;88.47;;;83.68;;
41099;SDS011;26844;53.686;-6.346;2022-10-16T02:11:09;46.17;;;44.03;;
41099;SDS011;26844;53.686;-6.346;2022-10-16T02:16:03;23.23;;;22.15;;
41099;SDS011;26844;53.686;-6.346;2022-10-16T02:18:28;30.55;;;28.95;;
41099;SDS011;26844;53.686;-6.346;2022-10-16T02:21:56;35.28;;;33.50;;
41099;SDS011;26844;53.686;-6.346;2022-10-16T02:23:53;34.33;;;32.60;;
41099;SDS011;26844;53.686;-6.346;2022-10-16T02:26:26;78.90;;;74.63;;
41099;SDS011;26844;53.686;-6.346;2022-10-16T02:28:54;26.58;;;25.25;;
41099;SDS011;26844;53.686;-6.346;2022-10-16T02:31:21;45.10;;;42.75;;
41099;SDS011;26844;53.686;-6.346;2022-10-16T02:33:49;70.22;;;66.75;;
41099;SDS011;26844;53.686;-6.346;2022-10-16T02:36:16;31.08;;;29.65;;
41099;SDS011;26844;53.686;-6.346;2022-10-16T02:38:41;80.68;;;76.30;;
41099;SDS011;26844;53.686;-6.346;2022-10-16T02:41:06;86.88;;;82.13;;
41099;SDS011;26844;53.686;-6.346;2022-10-16T02:43:32;35.00;;;33.25;;
41099;SDS011;26844;53.686;-6.346;2022-10-16T02:45:58;37.75;;;35.95;;
41099;SDS011;26844;53.686;-6.346;2022-10-16T02:48:24;68.72;;;64.90;;
41099;SDS011;26844;53.686;-6.346;2022-10-16T02:50:49;21.30;;;20.40;;
41099;SDS011;26844;53.686;-6.346;2022-10-16T02:53:14;37.60;;;35.67;;
41099;SDS011;26844;53.686;-6.346;2022-10-16T02:55:39;23.95;;;22.83;;
41099;SDS011;26844;53.686;-6.346;2022-10-16T02:58:05;25.13;;;23.80;;
41099;SDS011;26844;53.686;-6.346;2022-10-16T03:00:30;17.67;;;16.88;;
41099;SDS011;26844;53.686;-6.346;2022-10-16T03:02:55;24.70;;;23.52;;
41099;SDS011;26844;53.686;-6.346;2022-10-16T03:05:20;32.28;;;30.67;;
41099;SDS011;26844;53.686;-6.346;2022-10-16T03:07:46;65.60;;;61.85;;
41099;SDS011;26844;53.686;-6.346;2022-10-16T03:10:11;16.88;;;16.17;;
41099;SDS011;26844;53.686;-6.346;2022-10-16T03:12:36;43.25;;;40.97;;
41099;SDS011;26844;53.686;-6.346;2022-10-16T03:15:02;14.70;;;13.73;;
41099;SDS011;26844;53.686;-6.346;2022-10-16T03:17:27;32.42;;;30.75;;
41099;SDS011;26844;53.686;-6.346;2022-10-16T03:19:52;22.60;;;21.58;;
41099;SDS011;26844;53.686;-6.346;2022-10-16T03:22:18;18.45;;;17.65;;
41099;SDS011;26844;53.686;-6.346;2022-10-16T03:24:43;39.45;;;37.38;;
41099;SDS011;26844;53.686;-6.346;2022-10-16T03:27:08;17.98;;;17.08;;
41099;SDS011;26844;53.686;-6.346;2022-10-16T03:29:33;14.02;;;13.43;;
41099;SDS011;26844;53.686;-6.346;2022-10-16T03:31:59;27.88;;;26.48;;
41099;SDS011;26844;53.686;-6.346;2022-10-16T03:34:24;117.55;;;110.05;;
41099;SDS011;26844;53.686;-6.346;2022-10-16T03:36:50;49.08;;;46.58;;
41099;SDS011;26844;53.686;-6.346;2022-10-16T03:39:15;43.25;;;40.97;;
41099;SDS011;26844;53.686;-6.346;2022-10-16T03:41:41;63.42;;;59.80;;
41099;SDS011;26844;53.686;-6.346;2022-10-16T03:44:06;14.05;;;13.30;;
41099;SDS011;26844;53.686;-6.346;2022-10-16T03:46:31;33.20;;;31.58;;
41099;SDS011;26844;53.686;-6.346;2022-10-16T03:48:56;21.55;;;20.55;;
41099;SDS011;26844;53.686;-6.346;2022-10-16T03:51:22;31.73;;;30.25;;
41099;SDS011;26844;53.686;-6.346;2022-10-16T03:53:47;33.28;;;31.83;;
41099;SDS011;26844;53.686;-6.346;2022-10-16T03:56:13;32.03;;;30.42;;
41099;SDS011;26844;53.686;-6.346;2022-10-16T03:58:39;25.67;;;24.58;;
41099;SDS011;26844;53.686;-6.346;2022-10-16T04:01:05;27.67;;;26.48;;
41099;SDS011;26844;53.686;-6.346;2022-10-16T04:03:30;27.42;;;26.30;;
41099;SDS011;26844;53.686;-6.346;2022-10-16T04:05:55;26.42;;;25.23;;
41099;SDS011;26844;53.686;-6.346;2022-10-16T04:08:21;32.78;;;31.27;;
41099;SDS011;26844;53.686;-6.346;2022-10-16T04:10:46;33.92;;;32.47;;
41099;SDS011;26844;53.686;-6.346;2022-10-16T04:13:11;25.75;;;24.60;;
41099;SDS011;26844;53.686;-6.346;2022-10-16T04:15:37;22.42;;;21.50;;
41099;SDS011;26844;53.686;-6.346;2022-10-16T04:18:02;23.60;;;22.55;;
41099;SDS011;26844;53.686;-6.346;2022-10-16T04:20:28;16.77;;;16.08;;
41099;SDS011;26844;53.686;-6.346;2022-10-16T04:22:53;30.38;;;29.08;;
41099;SDS011;26844;53.686;-6.346;2022-10-16T04:25:18;66.85;;;63.47;;
41099;SDS011;26844;53.686;-6.346;2022-10-16T04:27:43;28.60;;;27.40;;
41099;SDS011;26844;53.686;-6.346;2022-10-16T04:30:09;54.95;;;52.17;;
41099;SDS011;26844;53.686;-6.346;2022-10-16T04:32:34;28.63;;;27.33;;
41099;SDS011;26844;53.686;-6.346;2022-10-16T04:34:59;66.15;;;62.55;;
41099;SDS011;26844;53.686;-6.346;2022-10-16T04:37:25;19.33;;;18.42;;
41099;SDS011;26844;53.686;-6.346;2022-10-16T04:39:50;19.45;;;18.55;;
41099;SDS011;26844;53.686;-6.346;2022-10-16T04:42:16;21.92;;;20.88;;
41099;SDS011;26844;53.686;-6.346;2022-10-16T04:44:41;11.48;;;11.07;;
41099;SDS011;26844;53.686;-6.346;2022-10-16T04:47:06;12.30;;;11.80;;
41099;SDS011;26844;53.686;-6.346;2022-10-16T04:49:31;12.05;;;11.55;;
41099;SDS011;26844;53.686;-6.346;2022-10-16T04:51:57;11.40;;;10.90;;
41099;SDS011;26844;53.686;-6.346;2022-10-16T04:54:22;15.82;;;15.13;;
41099;SDS011;26844;53.686;-6.346;2022-10-16T04:56:47;18.08;;;17.20;;
41099;SDS011;26844;53.686;-6.346;2022-10-16T04:59:14;10.43;;;10.02;;
41099;SDS011;26844;53.686;-6.346;2022-10-16T05:01:39;19.20;;;18.35;;
41099;SDS011;26844;53.686;-6.346;2022-10-16T05:04:04;33.45;;;31.67;;
41099;SDS011;26844;53.686;-6.346;2022-10-16T05:06:29;12.40;;;11.90;;
41099;SDS011;26844;53.686;-6.346;2022-10-16T05:08:55;30.70;;;29.15;;
41099;SDS011;26844;53.686;-6.346;2022-10-16T05:11:20;20.15;;;19.27;;
41099;SDS011;26844;53.686;-6.346;2022-10-16T05:13:45;15.23;;;14.55;;
41099;SDS011;26844;53.686;-6.346;2022-10-16T05:16:10;17.63;;;16.88;;
41099;SDS011;26844;53.686;-6.346;2022-10-16T05:18:36;18.92;;;18.10;;
41099;SDS011;26844;53.686;-6.346;2022-10-16T05:21:01;16.52;;;15.82;;
41099;SDS011;26844;53.686;-6.346;2022-10-16T05:23:26;16.30;;;15.60;;
41099;SDS011;26844;53.686;-6.346;2022-10-16T05:25:55;24.63;;;23.52;;
41099;SDS011;26844;53.686;-6.346;2022-10-16T05:28:23;13.05;;;12.45;;
41099;SDS011;26844;53.686;-6.346;2022-10-16T05:30:48;20.45;;;19.60;;
41099;SDS011;26844;53.686;-6.346;2022-10-16T05:33:13;21.27;;;20.35;;
41099;SDS011;26844;53.686;-6.346;2022-10-16T05:35:38;18.63;;;17.83;;
41099;SDS011;26844;53.686;-6.346;2022-10-16T05:38:04;13.40;;;12.85;;
41099;SDS011;26844;53.686;-6.346;2022-10-16T05:40:29;19.83;;;19.02;;
41099;SDS011;26844;53.686;-6.346;2022-10-16T05:42:55;17.85;;;16.95;;
41099;SDS011;26844;53.686;-6.346;2022-10-16T05:45:20;13.73;;;13.13;;
41099;SDS011;26844;53.686;-6.346;2022-10-16T05:47:45;16.25;;;15.60;;
41099;SDS011;26844;53.686;-6.346;2022-10-16T05:50:10;22.20;;;21.20;;
41099;SDS011;26844;53.686;-6.346;2022-10-16T05:52:36;11.45;;;10.95;;
41099;SDS011;26844;53.686;-6.346;2022-10-16T05:55:01;12.38;;;11.90;;
41099;SDS011;26844;53.686;-6.346;2022-10-16T05:57:27;22.08;;;20.67;;
41099;SDS011;26844;53.686;-6.346;2022-10-16T05:59:52;12.43;;;11.85;;
41099;SDS011;26844;53.686;-6.346;2022-10-16T06:02:17;10.38;;;9.98;;
41099;SDS011;26844;53.686;-6.346;2022-10-16T06:04:42;11.48;;;11.05;;
41099;SDS011;26844;53.686;-6.346;2022-10-16T06:07:07;13.57;;;13.07;;
41099;SDS011;26844;53.686;-6.346;2022-10-16T06:09:33;19.05;;;18.25;;
41099;SDS011;26844;53.686;-6.346;2022-10-16T06:11:58;18.15;;;17.15;;
41099;SDS011;26844;53.686;-6.346;2022-10-16T06:14:23;18.30;;;17.52;;
41099;SDS011;26844;53.686;-6.346;2022-10-16T06:16:49;16.77;;;16.10;;
41099;SDS011;26844;53.686;-6.346;2022-10-16T06:19:14;14.30;;;13.70;;
41099;SDS011;26844;53.686;-6.346;2022-10-16T06:21:41;14.67;;;14.07;;
41099;SDS011;26844;53.686;-6.346;2022-10-16T06:24:06;14.73;;;14.15;;
41099;SDS011;26844;53.686;-6.346;2022-10-16T06:26:32;26.42;;;25.27;;
41099;SDS011;26844;53.686;-6.346;2022-10-16T06:28:57;33.78;;;32.15;;
41099;SDS011;26844;53.686;-6.346;2022-10-16T06:31:23;23.73;;;22.70;;
41099;SDS011;26844;53.686;-6.346;2022-10-16T06:33:52;24.42;;;23.33;;
41099;SDS011;26844;53.686;-6.346;2022-10-16T06:36:18;24.73;;;23.65;;
41099;SDS011;26844;53.686;-6.346;2022-10-16T06:38:43;21.67;;;20.75;;
41099;SDS011;26844;53.686;-6.346;2022-10-16T06:41:11;40.65;;;38.75;;
41099;SDS011;26844;53.686;-6.346;2022-10-16T06:43:36;29.67;;;28.30;;
41099;SDS011;26844;53.686;-6.346;2022-10-16T06:46:02;30.77;;;29.48;;
41099;SDS011;26844;53.686;-6.346;2022-10-16T06:48:28;25.08;;;23.77;;
41099;SDS011;26844;53.686;-6.346;2022-10-16T06:53:28;66.13;;;62.72;;
41099;SDS011;26844;53.686;-6.346;2022-10-16T06:55:54;25.77;;;24.60;;
41099;SDS011;26844;53.686;-6.346;2022-10-16T06:58:20;19.00;;;18.02;;
41099;SDS011;26844;53.686;-6.346;2022-10-16T07:00:45;25.13;;;24.02;;
41099;SDS011;26844;53.686;-6.346;2022-10-16T07:03:10;22.10;;;21.13;;
41099;SDS011;26844;53.686;-6.346;2022-10-16T07:05:41;12.23;;;11.65;;
41099;SDS011;26844;53.686;-6.346;2022-10-16T07:08:07;16.48;;;15.68;;
41099;SDS011;26844;53.686;-6.346;2022-10-16T07:10:32;18.20;;;17.40;;
41099;SDS011;26844;53.686;-6.346;2022-10-16T07:12:58;67.47;;;63.45;;
41099;SDS011;26844;53.686;-6.346;2022-10-16T07:15:24;33.65;;;31.92;;
41099;SDS011;26844;53.686;-6.346;2022-10-16T07:17:49;15.07;;;14.48;;
41099;SDS011;26844;53.686;-6.346;2022-10-16T07:20:14;15.10;;;14.43;;
41099;SDS011;26844;53.686;-6.346;2022-10-16T07:22:40;14.45;;;13.85;;
41099;SDS011;26844;53.686;-6.346;2022-10-16T07:25:05;13.60;;;12.98;;
41099;SDS011;26844;53.686;-6.346;2022-10-16T07:27:30;34.78;;;33.08;;
41099;SDS011;26844;53.686;-6.346;2022-10-16T07:29:56;15.18;;;14.57;;
41099;SDS011;26844;53.686;-6.346;2022-10-16T07:32:21;13.85;;;13.15;;
41099;SDS011;26844;53.686;-6.346;2022-10-16T07:34:46;15.45;;;14.85;;
41099;SDS011;26844;53.686;-6.346;2022-10-16T07:37:11;14.10;;;13.52;;
41099;SDS011;26844;53.686;-6.346;2022-10-16T07:39:37;13.63;;;13.00;;
41099;SDS011;26844;53.686;-6.346;2022-10-16T07:42:02;17.00;;;16.33;;
41099;SDS011;26844;53.686;-6.346;2022-10-16T07:44:27;11.30;;;10.88;;
41099;SDS011;26844;53.686;-6.346;2022-10-16T07:46:52;8.48;;;8.18;;
41099;SDS011;26844;53.686;-6.346;2022-10-16T07:49:18;9.50;;;8.70;;
41099;SDS011;26844;53.686;-6.346;2022-10-16T07:51:43;8.27;;;7.97;;
41099;SDS011;26844;53.686;-6.346;2022-10-16T07:54:09;9.27;;;8.73;;
41099;SDS011;26844;53.686;-6.346;2022-10-16T07:56:34;7.10;;;6.85;;
41099;SDS011;26844;53.686;-6.346;2022-10-16T07:58:59;5.55;;;5.35;;
41099;SDS011;26844;53.686;-6.346;2022-10-16T08:01:25;8.38;;;7.70;;
41099;SDS011;26844;53.686;-6.346;2022-10-16T08:03:50;13.20;;;12.60;;
41099;SDS011;26844;53.686;-6.346;2022-10-16T08:06:17;19.25;;;18.48;;
41099;SDS011;26844;53.686;-6.346;2022-10-16T08:08:42;17.90;;;17.20;;
41099;SDS011;26844;53.686;-6.346;2022-10-16T08:11:07;18.20;;;17.30;;
41099;SDS011;26844;53.686;-6.346;2022-10-16T08:13:33;12.57;;;11.90;;
41099;SDS011;26844;53.686;-6.346;2022-10-16T08:15:58;13.35;;;12.85;;
41099;SDS011;26844;53.686;-6.346;2022-10-16T08:18:24;12.23;;;11.65;;
41099;SDS011;26844;53.686;-6.346;2022-10-16T08:20:54;12.60;;;12.00;;
41099;SDS011;26844;53.686;-6.346;2022-10-16T08:23:20;10.93;;;10.52;;
41099;SDS011;26844;53.686;-6.346;2022-10-16T08:25:45;16.15;;;15.48;;
41099;SDS011;26844;53.686;-6.346;2022-10-16T08:28:11;15.45;;;14.57;;
41099;SDS011;26844;53.686;-6.346;2022-10-16T08:30:37;17.38;;;16.48;;
41099;SDS011;26844;53.686;-6.346;2022-10-16T08:33:02;25.58;;;24.52;;
41099;SDS011;26844;53.686;-6.346;2022-10-16T08:35:27;30.52;;;29.27;;
41099;SDS011;26844;53.686;-6.346;2022-10-16T08:37:53;30.48;;;29.13;;
41099;SDS011;26844;53.686;-6.346;2022-10-16T08:40:19;30.88;;;29.45;;
41099;SDS011;26844;53.686;-6.346;2022-10-16T08:50:39;19.55;;;18.75;;
41099;SDS011;26844;53.686;-6.346;2022-10-16T08:53:05;14.82;;;14.23;;
41099;SDS011;26844;53.686;-6.346;2022-10-16T08:55:33;15.00;;;14.40;;
41099;SDS011;26844;53.686;-6.346;2022-10-16T08:58:00;17.02;;;15.93;;
41099;SDS011;26844;53.686;-6.346;2022-10-16T09:00:26;14.88;;;14.27;;
41099;SDS011;26844;53.686;-6.346;2022-10-16T09:03:37;20.02;;;19.13;;
41099;SDS011;26844;53.686;-6.346;2022-10-16T09:05:55;19.55;;;18.73;;
41099;SDS011;26844;53.686;-6.346;2022-10-16T09:13:34;21.08;;;20.25;;
41099;SDS011;26844;53.686;-6.346;2022-10-16T09:18:48;19.40;;;18.40;;
41099;SDS011;26844;53.686;-6.346;2022-10-16T09:21:17;22.83;;;21.77;;
41099;SDS011;26844;53.686;-6.346;2022-10-16T09:23:43;20.98;;;20.13;;
41099;SDS011;26844;53.686;-6.346;2022-10-16T09:26:12;22.27;;;21.23;;
41099;SDS011;26844;53.686;-6.346;2022-10-16T09:28:38;16.35;;;15.57;;
41099;SDS011;26844;53.686;-6.346;2022-10-16T09:31:04;19.10;;;18.35;;
41099;SDS011;26844;53.686;-6.346;2022-10-16T09:33:30;17.30;;;16.60;;
41099;SDS011;26844;53.686;-6.346;2022-10-16T09:35:57;12.73;;;12.20;;
41099;SDS011;26844;53.686;-6.346;2022-10-16T09:38:27;13.15;;;12.65;;
41099;SDS011;26844;53.686;-6.346;2022-10-16T09:40:53;15.48;;;14.52;;
41099;SDS011;26844;53.686;-6.346;2022-10-16T09:48:12;13.88;;;13.23;;
41099;SDS011;26844;53.686;-6.346;2022-10-16T09:50:38;13.75;;;13.18;;
41099;SDS011;26844;53.686;-6.346;2022-10-16T09:53:13;14.95;;;14.25;;
41099;SDS011;26844;53.686;-6.346;2022-10-16T09:55:51;12.65;;;12.15;;
41099;SDS011;26844;53.686;-6.346;2022-10-16T09:58:17;12.60;;;12.10;;
41099;SDS011;26844;53.686;-6.346;2022-10-16T10:00:48;11.60;;;11.18;;
41099;SDS011;26844;53.686;-6.346;2022-10-16T10:03:19;13.73;;;13.10;;
41099;SDS011;26844;53.686;-6.346;2022-10-16T10:05:51;15.63;;;14.85;;
41099;SDS011;26844;53.686;-6.346;2022-10-16T10:08:16;13.20;;;12.63;;
41099;SDS011;26844;53.686;-6.346;2022-10-16T10:10:42;13.43;;;12.68;;
41099;SDS011;26844;53.686;-6.346;2022-10-16T10:13:20;11.73;;;11.20;;
41099;SDS011;26844;53.686;-6.346;2022-10-16T10:15:46;10.30;;;9.70;;
41099;SDS011;26844;53.686;-6.346;2022-10-16T10:18:16;11.18;;;10.57;;
41099;SDS011;26844;53.686;-6.346;2022-10-16T10:20:42;11.63;;;11.23;;
41099;SDS011;26844;53.686;-6.346;2022-10-16T10:23:24;10.00;;;9.60;;
41099;SDS011;26844;53.686;-6.346;2022-10-16T10:25:51;11.55;;;11.05;;
41099;SDS011;26844;53.686;-6.346;2022-10-16T10:31:03;10.65;;;10.23;;
41099;SDS011;26844;53.686;-6.346;2022-10-16T10:38:43;14.90;;;14.30;;
41099;SDS011;26844;53.686;-6.346;2022-10-16T10:43:56;13.95;;;13.43;;
41099;SDS011;26844;53.686;-6.346;2022-10-16T10:46:36;14.75;;;14.05;;
41099;SDS011;26844;53.686;-6.346;2022-10-16T10:56:42;16.13;;;15.40;;
41099;SDS011;26844;53.686;-6.346;2022-10-16T11:02:04;24.92;;;23.90;;
41099;SDS011;26844;53.686;-6.346;2022-10-16T11:07:14;32.30;;;30.95;;
41099;SDS011;26844;53.686;-6.346;2022-10-16T11:09:41;40.03;;;38.35;;
41099;SDS011;26844;53.686;-6.346;2022-10-16T11:17:18;49.65;;;47.55;;
41099;SDS011;26844;53.686;-6.346;2022-10-16T11:19:46;49.08;;;47.00;;
41099;SDS011;26844;53.686;-6.346;2022-10-16T11:30:27;56.28;;;53.53;;
41099;SDS011;26844;53.686;-6.346;2022-10-16T11:35:23;62.13;;;59.28;;
41099;SDS011;26844;53.686;-6.346;2022-10-16T11:37:50;51.40;;;49.10;;
41099;SDS011;26844;53.686;-6.346;2022-10-16T11:40:19;41.17;;;39.33;;
41099;SDS011;26844;53.686;-6.346;2022-10-16T11:42:49;56.58;;;53.90;;
41099;SDS011;26844;53.686;-6.346;2022-10-16T11:45:26;54.15;;;51.70;;
41099;SDS011;26844;53.686;-6.346;2022-10-16T11:48:00;43.92;;;42.13;;
41099;SDS011;26844;53.686;-6.346;2022-10-16T11:50:35;42.15;;;40.38;;
41099;SDS011;26844;53.686;-6.346;2022-10-16T11:55:37;32.28;;;30.95;;
41099;SDS011;26844;53.686;-6.346;2022-10-16T11:58:08;32.47;;;30.92;;
41099;SDS011;26844;53.686;-6.346;2022-10-16T12:00:42;28.65;;;27.42;;
41099;SDS011;26844;53.686;-6.346;2022-10-16T12:03:13;27.35;;;25.88;;
41099;SDS011;26844;53.686;-6.346;2022-10-16T12:08:10;12.00;;;11.40;;
41099;SDS011;26844;53.686;-6.346;2022-10-16T12:10:36;14.23;;;13.13;;
41099;SDS011;26844;53.686;-6.346;2022-10-16T12:13:03;13.63;;;13.07;;
41099;SDS011;26844;53.686;-6.346;2022-10-16T12:15:30;12.23;;;11.73;;
41099;SDS011;26844;53.686;-6.346;2022-10-16T12:17:56;12.98;;;12.35;;
41099;SDS011;26844;53.686;-6.346;2022-10-16T12:20:23;14.02;;;13.20;;
41099;SDS011;26844;53.686;-6.346;2022-10-16T12:22:53;16.13;;;15.45;;
41099;SDS011;26844;53.686;-6.346;2022-10-16T12:25:40;14.23;;;13.63;;
41099;SDS011;26844;53.686;-6.346;2022-10-16T12:28:18;16.23;;;15.52;;
41099;SDS011;26844;53.686;-6.346;2022-10-16T12:30:51;18.83;;;17.92;;
41099;SDS011;26844;53.686;-6.346;2022-10-16T12:35:43;15.73;;;15.13;;
41099;SDS011;26844;53.686;-6.346;2022-10-16T12:38:20;18.55;;;17.67;;
41099;SDS011;26844;53.686;-6.346;2022-10-16T12:40:46;14.98;;;14.38;;
41099;SDS011;26844;53.686;-6.346;2022-10-16T12:43:38;17.33;;;16.63;;
41099;SDS011;26844;53.686;-6.346;2022-10-16T12:48:29;15.13;;;14.52;;
41099;SDS011;26844;53.686;-6.346;2022-10-16T12:50:55;14.48;;;13.75;;
41099;SDS011;26844;53.686;-6.346;2022-10-16T12:53:22;14.02;;;13.43;;
41099;SDS011;26844;53.686;-6.346;2022-10-16T13:00:58;15.30;;;14.68;;
41099;SDS011;26844;53.686;-6.346;2022-10-16T13:16:06;16.60;;;15.90;;
41099;SDS011;26844;53.686;-6.346;2022-10-16T13:26:20;15.48;;;14.60;;
41099;SDS011;26844;53.686;-6.346;2022-10-16T13:28:47;14.95;;;14.20;;
41099;SDS011;26844;53.686;-6.346;2022-10-16T13:31:14;15.68;;;15.02;;
41099;SDS011;26844;53.686;-6.346;2022-10-16T13:33:41;14.50;;;13.90;;
41099;SDS011;26844;53.686;-6.346;2022-10-16T13:36:18;16.52;;;15.70;;
41099;SDS011;26844;53.686;-6.346;2022-10-16T13:38:44;17.67;;;16.67;;
41099;SDS011;26844;53.686;-6.346;2022-10-16T13:41:16;13.82;;;13.23;;
41099;SDS011;26844;53.686;-6.346;2022-10-16T13:43:51;16.38;;;15.57;;
41099;SDS011;26844;53.686;-6.346;2022-10-16T13:46:21;15.68;;;14.90;;
41099;SDS011;26844;53.686;-6.346;2022-10-16T13:49:00;15.55;;;14.90;;
41099;SDS011;26844;53.686;-6.346;2022-10-16T13:51:26;16.10;;;15.40;;
41099;SDS011;26844;53.686;-6.346;2022-10-16T13:53:51;14.15;;;13.48;;
41099;SDS011;26844;53.686;-6.346;2022-10-16T13:56:18;15.38;;;14.60;;
41099;SDS011;26844;53.686;-6.346;2022-10-16T13:58:43;15.65;;;15.00;;
41099;SDS011;26844;53.686;-6.346;2022-10-16T14:01:19;16.77;;;15.88;;
41099;SDS011;26844;53.686;-6.346;2022-10-16T14:03:46;14.90;;;14.25;;
41099;SDS011;26844;53.686;-6.346;2022-10-16T14:06:19;13.13;;;12.52;;
41099;SDS011;26844;53.686;-6.346;2022-10-16T14:08:48;14.48;;;13.90;;
41099;SDS011;26844;53.686;-6.346;2022-10-16T14:11:20;12.95;;;12.43;;
41099;SDS011;26844;53.686;-6.346;2022-10-16T14:13:46;14.63;;;13.85;;
41099;SDS011;26844;53.686;-6.346;2022-10-16T14:16:27;14.00;;;13.48;;
41099;SDS011;26844;53.686;-6.346;2022-10-16T14:18:57;14.32;;;13.73;;
41099;SDS011;26844;53.686;-6.346;2022-10-16T14:21:23;15.23;;;14.38;;
41099;SDS011;26844;53.686;-6.346;2022-10-16T14:23:49;13.98;;;13.40;;
41099;SDS011;26844;53.686;-6.346;2022-10-16T14:26:16;14.23;;;13.52;;
41099;SDS011;26844;53.686;-6.346;2022-10-16T14:28:41;15.45;;;14.75;;
41099;SDS011;26844;53.686;-6.346;2022-10-16T14:33:44;14.45;;;13.75;;
41099;SDS011;26844;53.686;-6.346;2022-10-16T14:38:35;11.48;;;10.98;;
41099;SDS011;26844;53.686;-6.346;2022-10-16T14:41:01;9.80;;;9.40;;
41099;SDS011;26844;53.686;-6.346;2022-10-16T14:43:32;10.57;;;10.18;;
41099;SDS011;26844;53.686;-6.346;2022-10-16T14:45:58;7.40;;;7.05;;
41099;SDS011;26844;53.686;-6.346;2022-10-16T14:48:23;7.10;;;6.80;;
41099;SDS011;26844;53.686;-6.346;2022-10-16T14:50:49;8.48;;;8.18;;
41099;SDS011;26844;53.686;-6.346;2022-10-16T14:53:14;8.98;;;8.48;;
41099;SDS011;26844;53.686;-6.346;2022-10-16T14:55:40;11.95;;;11.48;;
41099;SDS011;26844;53.686;-6.346;2022-10-16T14:58:07;11.15;;;10.65;;
41099;SDS011;26844;53.686;-6.346;2022-10-16T15:00:34;13.93;;;13.23;;
41099;SDS011;26844;53.686;-6.346;2022-10-16T15:03:00;17.38;;;16.58;;
41099;SDS011;26844;53.686;-6.346;2022-10-16T15:05:26;22.95;;;21.95;;
41099;SDS011;26844;53.686;-6.346;2022-10-16T15:07:52;17.42;;;16.73;;
41099;SDS011;26844;53.686;-6.346;2022-10-16T15:10:18;18.42;;;17.63;;
41099;SDS011;26844;53.686;-6.346;2022-10-16T15:12:44;19.50;;;18.70;;
41099;SDS011;26844;53.686;-6.346;2022-10-16T15:17:48;26.15;;;25.05;;
41099;SDS011;26844;53.686;-6.346;2022-10-16T15:20:13;27.27;;;26.10;;
41099;SDS011;26844;53.686;-6.346;2022-10-16T15:22:38;29.75;;;28.30;;
41099;SDS011;26844;53.686;-6.346;2022-10-16T15:25:10;29.65;;;27.92;;
41099;SDS011;26844;53.686;-6.346;2022-10-16T15:27:44;29.17;;;27.88;;
41099;SDS011;26844;53.686;-6.346;2022-10-16T15:30:09;27.63;;;26.42;;
41099;SDS011;26844;53.686;-6.346;2022-10-16T15:32:34;34.08;;;32.65;;
41099;SDS011;26844;53.686;-6.346;2022-10-16T15:34:59;35.53;;;33.85;;
41099;SDS011;26844;53.686;-6.346;2022-10-16T15:37:25;24.65;;;23.52;;
41099;SDS011;26844;53.686;-6.346;2022-10-16T15:39:50;32.83;;;31.42;;
41099;SDS011;26844;53.686;-6.346;2022-10-16T15:42:15;34.95;;;33.40;;
41099;SDS011;26844;53.686;-6.346;2022-10-16T15:44:41;26.35;;;24.92;;
41099;SDS011;26844;53.686;-6.346;2022-10-16T15:47:07;25.38;;;24.33;;
41099;SDS011;26844;53.686;-6.346;2022-10-16T15:49:32;22.30;;;21.33;;
41099;SDS011;26844;53.686;-6.346;2022-10-16T15:51:58;23.42;;;22.45;;
41099;SDS011;26844;53.686;-6.346;2022-10-16T15:54:23;26.77;;;25.65;;
41099;SDS011;26844;53.686;-6.346;2022-10-16T15:56:48;26.48;;;25.38;;
41099;SDS011;26844;53.686;-6.346;2022-10-16T15:59:14;27.35;;;26.05;;
41099;SDS011;26844;53.686;-6.346;2022-10-16T16:01:39;25.08;;;23.95;;
41099;SDS011;26844;53.686;-6.346;2022-10-16T16:04:04;27.83;;;26.63;;
41099;SDS011;26844;53.686;-6.346;2022-10-16T16:06:29;31.08;;;29.77;;
41099;SDS011;26844;53.686;-6.346;2022-10-16T16:08:55;35.00;;;33.40;;